Preview of NWS' New Version of Forecast
This preview is not operational and should not be used for support decisions.

Terminal Aerodrome Forecast (TAF)

Issued by National Weather Service (NWS)

                            
571 
FTUS42 KKEY 200900 AAB
TAFEYW
TAF AMD
KEYW 200900Z 2009/2106 11016G25KT P6SM VCSH SCT020 BKN050
      TEMPO 2009/2011 BKN020
     FM201500 12017G27KT P6SM FEW020 SCT050=